createdAt,value
2022-12-11T00:04:48.700Z,0
2022-12-11T00:09:49.184Z,0
2022-12-11T00:14:48.763Z,0
2022-12-11T00:19:49.207Z,0
2022-12-11T00:24:48.951Z,0
2022-12-11T00:29:49.322Z,0
2022-12-11T00:34:48.850Z,0
2022-12-11T00:39:48.778Z,0
2022-12-11T00:44:49.169Z,0
2022-12-11T00:49:50.474Z,0
2022-12-11T00:54:49.039Z,0
2022-12-11T00:59:49.511Z,0
2022-12-11T01:04:49.118Z,0
2022-12-11T01:09:49.644Z,0
2022-12-11T01:14:49.087Z,0
2022-12-11T01:19:48.747Z,0
2022-12-11T01:24:48.982Z,0
2022-12-11T01:29:49.649Z,0
2022-12-11T01:34:49.174Z,0
2022-12-11T01:39:49.537Z,0
2022-12-11T01:44:49.000Z,0
2022-12-11T01:49:49.516Z,0
2022-12-11T01:54:48.898Z,0
2022-12-11T01:59:49.282Z,0
2022-12-11T02:04:48.714Z,0
2022-12-11T02:09:49.286Z,0
2022-12-11T02:14:48.849Z,0
2022-12-11T02:19:48.826Z,0
2022-12-11T02:24:49.308Z,0
2022-12-11T02:29:48.747Z,0
2022-12-11T02:34:49.286Z,0
2022-12-11T02:39:49.223Z,0
2022-12-11T02:44:49.169Z,0
2022-12-11T02:49:49.080Z,0
2022-12-11T02:54:49.245Z,0
2022-12-11T02:59:49.238Z,0
2022-12-11T03:04:49.665Z,0
2022-12-11T03:09:49.008Z,0
2022-12-11T03:14:48.962Z,0
2022-12-11T03:19:49.336Z,0
2022-12-11T03:24:49.023Z,0
2022-12-11T03:29:49.483Z,0
2022-12-11T03:34:49.523Z,0
2022-12-11T03:39:49.532Z,0
2022-12-11T03:44:48.996Z,0
2022-12-11T03:49:49.105Z,0
2022-12-11T03:54:49.080Z,0
2022-12-11T03:59:49.176Z,0
2022-12-11T04:04:49.751Z,0
2022-12-11T04:09:48.966Z,0
2022-12-11T04:14:49.638Z,0
2022-12-11T04:19:49.565Z,0
2022-12-11T04:24:48.962Z,0
2022-12-11T04:29:48.961Z,0
2022-12-11T04:34:49.821Z,0
2022-12-11T04:39:49.395Z,0
2022-12-11T04:44:49.266Z,0
2022-12-11T04:49:48.836Z,0
2022-12-11T04:54:49.034Z,0
2022-12-11T04:59:49.566Z,0
2022-12-11T05:04:49.145Z,0
2022-12-11T05:09:49.096Z,0
2022-12-11T05:14:49.282Z,0
2022-12-11T05:19:49.109Z,0
2022-12-11T05:24:49.780Z,0
2022-12-11T05:29:49.254Z,0
2022-12-11T05:34:49.819Z,0
2022-12-11T05:39:49.071Z,0
2022-12-11T05:44:49.615Z,0
2022-12-11T05:49:49.781Z,0
2022-12-11T05:54:49.739Z,0
2022-12-11T05:59:49.287Z,0
2022-12-11T06:04:49.774Z,0
2022-12-11T06:09:49.292Z,0
2022-12-11T06:14:48.983Z,0
2022-12-11T06:19:49.399Z,0
2022-12-11T06:24:49.864Z,0
2022-12-11T06:29:49.443Z,0
2022-12-11T06:34:48.899Z,0
2022-12-11T06:39:49.645Z,0
2022-12-11T06:44:49.166Z,0
2022-12-11T06:49:49.888Z,0
2022-12-11T06:54:49.335Z,0
2022-12-11T06:59:49.748Z,0
2022-12-11T07:04:55.510Z,0
2022-12-11T07:09:49.286Z,0
2022-12-11T07:14:49.274Z,0
2022-12-11T07:19:49.678Z,0
2022-12-11T07:24:49.269Z,0
2022-12-11T07:29:49.786Z,0
2022-12-11T07:34:52.377Z,0
2022-12-11T07:39:49.784Z,0
2022-12-11T07:44:49.153Z,7
2022-12-11T07:49:49.470Z,7
2022-12-11T07:54:48.951Z,9.7
2022-12-11T07:59:49.323Z,9.7
2022-12-11T08:04:49.764Z,14
2022-12-11T08:09:49.165Z,14
2022-12-11T08:14:49.637Z,18
2022-12-11T08:19:49.094Z,18
2022-12-11T08:24:49.617Z,19
2022-12-11T08:29:49.019Z,19
2022-12-11T08:34:49.353Z,21
2022-12-11T08:39:49.110Z,21
2022-12-11T08:44:49.614Z,23
2022-12-11T08:49:48.933Z,23
2022-12-11T08:54:49.823Z,25
2022-12-11T08:59:51.146Z,25
2022-12-11T09:04:49.112Z,25
2022-12-11T09:09:50.055Z,25
2022-12-11T09:14:49.071Z,26
2022-12-11T09:19:49.937Z,26
2022-12-11T09:24:49.088Z,76
2022-12-11T09:29:49.601Z,76
2022-12-11T09:34:49.671Z,56
2022-12-11T09:39:49.976Z,56
2022-12-11T09:44:49.446Z,84
2022-12-11T09:49:49.179Z,84
2022-12-11T09:54:49.853Z,83
2022-12-11T09:59:49.013Z,83
2022-12-11T10:04:49.855Z,100
2022-12-11T10:09:49.493Z,100
2022-12-11T10:14:50.116Z,75.2
2022-12-11T10:19:49.574Z,75.2
2022-12-11T10:25:12.728Z,83
2022-12-11T10:29:49.349Z,83
2022-12-11T10:34:49.314Z,83
2022-12-11T10:39:49.878Z,83
2022-12-11T10:44:49.875Z,131.5
2022-12-11T10:49:49.706Z,131.5
2022-12-11T10:54:49.195Z,72
2022-12-11T10:59:49.594Z,72
2022-12-11T11:04:49.040Z,54
2022-12-11T11:09:50.027Z,54
2022-12-11T11:14:49.444Z,32
2022-12-11T11:19:49.034Z,32
2022-12-11T11:24:49.478Z,30
2022-12-11T11:29:53.546Z,30
2022-12-11T11:34:50.108Z,30
2022-12-11T11:39:49.534Z,30
2022-12-11T11:44:49.059Z,30
2022-12-11T11:49:49.514Z,30
2022-12-11T11:54:49.898Z,28
2022-12-11T11:59:49.307Z,28
2022-12-11T12:04:49.712Z,28
2022-12-11T12:09:49.320Z,28
2022-12-11T12:14:52.963Z,28
2022-12-11T12:19:49.447Z,28
2022-12-11T12:24:50.024Z,28
2022-12-11T12:29:49.342Z,28
2022-12-11T12:34:49.868Z,28
2022-12-11T12:39:49.668Z,28
2022-12-11T12:44:50.041Z,28
2022-12-11T12:49:49.572Z,28
2022-12-11T12:54:50.014Z,37
2022-12-11T12:59:49.367Z,37
2022-12-11T13:04:56.774Z,31.9
2022-12-11T13:09:49.217Z,31.9
2022-12-11T13:14:49.851Z,39
2022-12-11T13:19:49.303Z,39
2022-12-11T13:24:49.979Z,123
2022-12-11T13:29:49.510Z,123
2022-12-11T13:34:49.940Z,86
2022-12-11T13:39:49.867Z,86
2022-12-11T13:44:49.607Z,56
2022-12-11T13:49:49.198Z,56
2022-12-11T13:54:49.720Z,42
2022-12-11T13:59:49.169Z,42
2022-12-11T14:04:49.533Z,38.9
2022-12-11T14:09:50.113Z,38.9
2022-12-11T14:14:49.730Z,30
2022-12-11T14:19:49.319Z,30
2022-12-11T14:24:49.813Z,18
2022-12-11T14:29:50.153Z,18
2022-12-11T14:34:49.549Z,12
2022-12-11T14:39:49.926Z,12
2022-12-11T14:44:49.619Z,7
2022-12-11T14:49:49.187Z,7
2022-12-11T14:54:49.539Z,5
2022-12-11T14:59:49.511Z,5
2022-12-11T15:04:50.103Z,0
2022-12-11T15:09:49.657Z,0
2022-12-11T15:14:50.045Z,0
2022-12-11T15:19:49.283Z,0
2022-12-11T15:24:49.314Z,0
2022-12-11T15:29:49.415Z,0
2022-12-11T15:34:49.759Z,0
2022-12-11T15:39:49.726Z,0
2022-12-11T15:44:50.128Z,0
2022-12-11T15:49:49.930Z,0
2022-12-11T15:54:49.629Z,0
2022-12-11T15:59:50.097Z,0
2022-12-11T16:04:49.530Z,0
2022-12-11T16:09:50.026Z,0
2022-12-11T16:14:49.776Z,0
2022-12-11T16:19:49.427Z,0
2022-12-11T16:24:50.124Z,0
2022-12-11T16:29:49.604Z,0
2022-12-11T16:34:50.055Z,0
2022-12-11T16:39:49.608Z,0
2022-12-11T16:44:49.460Z,0
2022-12-11T16:49:49.868Z,0
2022-12-11T16:54:49.308Z,0
2022-12-11T16:59:49.792Z,0
2022-12-11T17:04:54.404Z,0
2022-12-11T17:09:49.804Z,0
2022-12-11T17:14:49.427Z,0
2022-12-11T17:19:50.061Z,0
2022-12-11T17:24:54.609Z,0
2022-12-11T17:29:50.001Z,0
2022-12-11T17:34:49.389Z,0
2022-12-11T17:39:49.892Z,0
2022-12-11T17:44:49.313Z,0
2022-12-11T17:49:49.790Z,0
2022-12-11T17:54:49.460Z,0
2022-12-11T17:59:49.756Z,0
2022-12-11T18:04:50.273Z,0
2022-12-11T18:09:49.608Z,0
2022-12-11T18:14:50.019Z,0
2022-12-11T18:19:49.431Z,0
2022-12-11T18:24:49.811Z,0
2022-12-11T18:29:50.168Z,0
2022-12-11T18:34:49.598Z,0
2022-12-11T18:39:50.248Z,0
2022-12-11T18:44:50.089Z,0
2022-12-11T18:49:49.438Z,0
2022-12-11T18:54:49.885Z,0
2022-12-11T18:59:50.094Z,0
2022-12-11T19:04:49.371Z,0
2022-12-11T19:09:50.063Z,0
2022-12-11T19:14:48.819Z,0
2022-12-11T19:19:50.310Z,0
2022-12-11T19:24:49.592Z,0
2022-12-11T19:29:49.985Z,0
2022-12-11T19:34:50.256Z,0
2022-12-11T19:39:50.099Z,0
2022-12-11T19:44:49.372Z,0
2022-12-11T19:49:49.907Z,0
2022-12-11T19:54:50.208Z,0
2022-12-11T19:59:57.562Z,0
2022-12-11T20:04:49.947Z,0
2022-12-11T20:09:50.110Z,0
2022-12-11T20:14:49.476Z,0
2022-12-11T20:19:49.859Z,0
2022-12-11T20:24:49.750Z,0
2022-12-11T20:29:50.201Z,0
2022-12-11T20:34:49.584Z,0
2022-12-11T20:39:50.102Z,0
2022-12-11T20:44:49.993Z,0
2022-12-11T20:49:49.456Z,0
2022-12-11T20:54:50.090Z,0
2022-12-11T20:59:49.659Z,0
2022-12-11T21:04:49.890Z,0
2022-12-11T21:09:49.965Z,0
2022-12-11T21:14:49.981Z,0
2022-12-11T21:19:49.539Z,0
2022-12-11T21:24:50.050Z,0
2022-12-11T21:29:50.131Z,0
2022-12-11T21:34:49.934Z,0
2022-12-11T21:39:49.481Z,0
2022-12-11T21:46:01.734Z,0
2022-12-11T21:49:49.837Z,0
2022-12-11T21:54:56.254Z,0
2022-12-11T21:59:50.065Z,0
2022-12-11T22:04:50.009Z,0
2022-12-11T22:09:49.440Z,0
2022-12-11T22:14:50.203Z,0
2022-12-11T22:19:49.690Z,0
2022-12-11T22:24:49.994Z,0
2022-12-11T22:29:50.337Z,0
2022-12-11T22:34:49.681Z,0
2022-12-11T22:39:49.872Z,0
2022-12-11T22:44:50.286Z,0
2022-12-11T22:49:49.904Z,0
2022-12-11T22:54:49.410Z,0
2022-12-11T22:59:50.164Z,0
2022-12-11T23:04:50.108Z,0
2022-12-11T23:09:50.526Z,0
2022-12-11T23:14:49.941Z,0
2022-12-11T23:19:50.038Z,0
2022-12-11T23:24:49.560Z,0
2022-12-11T23:29:49.905Z,0
2022-12-11T23:34:50.292Z,0
2022-12-11T23:39:50.265Z,0
2022-12-11T23:44:49.680Z,0
2022-12-11T23:49:49.959Z,0
2022-12-11T23:54:50.307Z,0
2022-12-11T23:59:49.568Z,0
